createdAt,value
2019-05-26T00:00:06.655Z,7.90
2019-05-26T00:02:35.070Z,12.10
2019-05-26T00:05:04.907Z,10.43
2019-05-26T00:07:33.369Z,8.47
2019-05-26T00:10:02.082Z,7.13
2019-05-26T00:12:30.869Z,12.47
2019-05-26T00:14:59.293Z,7.93
2019-05-26T00:17:27.712Z,10.00
2019-05-26T00:19:56.118Z,8.17
2019-05-26T00:22:24.552Z,7.67
2019-05-26T00:24:52.954Z,8.83
2019-05-26T00:27:21.364Z,9.63
2019-05-26T00:29:49.769Z,8.70
2019-05-26T00:32:18.166Z,8.93
2019-05-26T00:34:46.602Z,9.00
2019-05-26T00:37:15.071Z,8.97
2019-05-26T00:39:43.481Z,12.07
2019-05-26T00:42:11.922Z,10.73
2019-05-26T00:44:40.332Z,8.23
2019-05-26T00:47:08.821Z,8.70
2019-05-26T00:49:37.227Z,8.27
2019-05-26T00:52:05.875Z,9.83
2019-05-26T00:54:34.304Z,9.53
2019-05-26T00:57:02.931Z,9.37
2019-05-26T00:59:31.336Z,9.47
2019-05-26T01:01:59.738Z,10.67
2019-05-26T01:04:28.165Z,11.43
2019-05-26T01:06:56.625Z,7.53
2019-05-26T01:09:25.025Z,9.23
2019-05-26T01:11:53.430Z,7.80
2019-05-26T01:14:21.867Z,10.57
2019-05-26T01:16:50.360Z,9.00
2019-05-26T01:19:18.787Z,8.40
2019-05-26T01:21:47.198Z,9.27
2019-05-26T01:24:15.598Z,10.53
2019-05-26T01:26:44.083Z,7.83
2019-05-26T01:29:12.495Z,7.93
2019-05-26T01:31:41.250Z,8.23
2019-05-26T01:34:09.638Z,8.53
2019-05-26T01:36:38.438Z,7.60
2019-05-26T01:39:08.035Z,8.90
2019-05-26T01:41:36.679Z,8.20
2019-05-26T01:44:05.362Z,7.07
2019-05-26T01:46:34.141Z,7.37
2019-05-26T01:49:02.540Z,7.10
2019-05-26T01:51:30.951Z,7.93
2019-05-26T01:53:59.382Z,10.17
2019-05-26T01:56:27.782Z,9.13
2019-05-26T01:58:56.183Z,7.10
2019-05-26T02:01:24.643Z,8.20
2019-05-26T02:03:53.115Z,8.43
2019-05-26T02:06:21.800Z,7.43
2019-05-26T02:08:50.226Z,7.40
2019-05-26T02:11:18.715Z,7.10
2019-05-26T02:13:47.106Z,7.00
2019-05-26T02:16:15.564Z,6.67
2019-05-26T02:18:43.975Z,8.37
2019-05-26T02:21:14.806Z,7.67
2019-05-26T02:23:42.530Z,7.33
2019-05-26T02:26:10.955Z,10.90
2019-05-26T02:28:39.350Z,9.67
2019-05-26T02:31:07.763Z,7.07
2019-05-26T02:33:36.159Z,7.57
2019-05-26T02:36:04.634Z,9.37
2019-05-26T02:38:33.047Z,7.43
2019-05-26T02:41:01.784Z,8.93
2019-05-26T02:43:30.349Z,7.70
2019-05-26T02:45:59.029Z,8.07
2019-05-26T02:48:27.609Z,9.47
2019-05-26T02:50:56.002Z,7.87
2019-05-26T02:53:24.872Z,9.57
2019-05-26T02:55:53.315Z,7.90
2019-05-26T02:58:21.716Z,7.60
2019-05-26T03:00:50.156Z,10.70
2019-05-26T03:03:18.634Z,8.47
2019-05-26T03:05:47.410Z,7.87
2019-05-26T03:08:17.138Z,9.60
2019-05-26T03:10:45.862Z,13.00
2019-05-26T03:13:15.672Z,7.07
2019-05-26T03:15:47.111Z,10.87
2019-05-26T03:18:15.870Z,10.40
2019-05-26T03:20:44.712Z,10.07
2019-05-26T03:23:14.937Z,8.30
2019-05-26T03:25:43.506Z,9.43
2019-05-26T03:28:11.920Z,9.50
2019-05-26T03:30:40.357Z,7.30
2019-05-26T03:33:08.749Z,9.77
2019-05-26T03:35:37.241Z,10.77
2019-05-26T03:38:05.717Z,8.67
2019-05-26T03:40:34.121Z,10.77
2019-05-26T03:43:02.540Z,10.20
2019-05-26T03:45:43.327Z,12.30
2019-05-26T03:48:11.861Z,9.47
2019-05-26T03:50:40.297Z,10.73
2019-05-26T03:53:08.766Z,12.83
2019-05-26T03:55:37.192Z,10.97
2019-05-26T03:58:05.615Z,11.07
2019-05-26T04:00:34.020Z,11.63
2019-05-26T04:03:02.428Z,12.97
2019-05-26T04:05:30.842Z,12.77
2019-05-26T04:08:03.989Z,13.03
2019-05-26T04:10:29.480Z,12.53
2019-05-26T04:12:57.946Z,12.63
2019-05-26T04:15:26.408Z,12.60
2019-05-26T04:17:54.825Z,16.97
2019-05-26T04:20:23.224Z,15.67
2019-05-26T04:22:51.670Z,16.87
2019-05-26T04:25:20.122Z,14.43
2019-05-26T04:27:48.562Z,14.93
2019-05-26T04:30:17.228Z,15.57
2019-05-26T04:32:45.700Z,12.90
2019-05-26T04:35:14.272Z,17.43
2019-05-26T04:37:42.702Z,15.03
2019-05-26T04:40:25.656Z,13.67
2019-05-26T04:42:41.780Z,14.07
2019-05-26T04:45:10.775Z,14.23
2019-05-26T04:47:39.238Z,18.80
2019-05-26T04:50:07.783Z,15.37
2019-05-26T04:52:36.196Z,16.53
2019-05-26T04:55:07.510Z,16.83
2019-05-26T04:57:35.910Z,21.00
2019-05-26T05:00:08.556Z,17.57
2019-05-26T05:02:37.039Z,19.23
2019-05-26T05:05:08.623Z,22.33
2019-05-26T05:07:37.074Z,20.23
2019-05-26T05:10:06.411Z,20.83
2019-05-26T05:12:34.828Z,21.33
2019-05-26T05:15:04.951Z,24.37
2019-05-26T05:17:33.376Z,19.87
2019-05-26T05:20:01.964Z,20.40
2019-05-26T05:22:30.576Z,21.13
2019-05-26T05:24:58.999Z,20.97
2019-05-26T05:27:27.407Z,21.70
2019-05-26T05:29:55.825Z,23.10
2019-05-26T05:32:24.266Z,19.87
2019-05-26T05:34:52.684Z,21.53
2019-05-26T05:37:24.928Z,22.43
2019-05-26T05:39:51.225Z,22.63
2019-05-26T05:42:19.625Z,19.97
2019-05-26T05:44:48.030Z,22.03
2019-05-26T05:47:16.455Z,22.13
2019-05-26T05:49:44.860Z,26.40
2019-05-26T05:52:13.273Z,19.70
2019-05-26T05:54:41.700Z,22.73
2019-05-26T05:57:10.102Z,23.93
2019-05-26T05:59:38.517Z,21.60
2019-05-26T06:02:06.933Z,22.83
2019-05-26T06:04:34.998Z,23.13
2019-05-26T06:07:03.475Z,21.77
2019-05-26T06:09:31.915Z,21.30
2019-05-26T06:12:00.565Z,23.00
2019-05-26T06:14:29.045Z,23.13
2019-05-26T06:16:57.527Z,24.43
2019-05-26T06:19:26.378Z,21.63
2019-05-26T06:21:54.778Z,23.10
2019-05-26T06:24:22.855Z,22.23
2019-05-26T06:26:51.279Z,23.53
2019-05-26T06:29:19.925Z,21.73
2019-05-26T06:31:48.553Z,22.73
2019-05-26T06:34:17.725Z,24.17
2019-05-26T06:36:46.135Z,21.80
2019-05-26T06:39:14.543Z,24.70
2019-05-26T06:41:42.978Z,24.40
2019-05-26T06:44:11.378Z,24.80
2019-05-26T06:46:40.132Z,25.47
2019-05-26T06:49:08.564Z,22.53
2019-05-26T06:51:36.958Z,23.57
2019-05-26T06:54:05.435Z,22.93
2019-05-26T06:56:33.861Z,22.57
2019-05-26T06:59:03.056Z,22.53
2019-05-26T07:01:31.658Z,21.93
2019-05-26T07:04:00.086Z,22.93
2019-05-26T07:06:28.482Z,21.53
2019-05-26T07:08:56.898Z,22.83
2019-05-26T07:11:25.587Z,22.40
2019-05-26T07:13:53.994Z,23.00
2019-05-26T07:16:36.846Z,24.03
2019-05-26T07:18:52.993Z,22.07
2019-05-26T07:21:21.411Z,21.10
2019-05-26T07:23:49.818Z,20.47
2019-05-26T07:26:18.292Z,20.03
2019-05-26T07:28:46.720Z,22.30
2019-05-26T07:31:15.130Z,19.70
2019-05-26T07:33:43.566Z,19.43
2019-05-26T07:36:11.971Z,18.50
2019-05-26T07:38:40.383Z,17.70
2019-05-26T07:41:08.810Z,16.93
2019-05-26T07:43:37.225Z,16.17
2019-05-26T07:46:05.358Z,18.30
2019-05-26T07:48:36.065Z,17.70
2019-05-26T07:51:03.593Z,15.17
2019-05-26T07:53:32.007Z,14.83
2019-05-26T07:56:00.418Z,15.07
2019-05-26T07:58:29.273Z,15.93
2019-05-26T08:00:57.691Z,14.33
2019-05-26T08:03:26.105Z,13.00
2019-05-26T08:05:54.531Z,13.43
2019-05-26T08:08:22.945Z,13.23
2019-05-26T08:10:51.348Z,12.17
2019-05-26T08:13:19.830Z,10.63
2019-05-26T08:15:47.905Z,11.03
2019-05-26T08:18:16.308Z,9.80
2019-05-26T08:20:44.724Z,9.53
2019-05-26T08:23:13.418Z,9.48
2019-05-26T08:25:41.901Z,13.05
2019-05-26T08:28:10.430Z,9.55
2019-05-26T08:30:38.899Z,8.68
2019-05-26T08:33:07.303Z,8.65
2019-05-26T08:35:35.993Z,7.87
2019-05-26T08:38:05.196Z,7.50
2019-05-26T08:40:33.603Z,7.53
2019-05-26T08:43:02.016Z,8.35
2019-05-26T08:45:30.422Z,7.45
2019-05-26T08:47:58.823Z,5.20
2019-05-26T08:50:27.230Z,4.60
2019-05-26T08:52:55.637Z,5.33
2019-05-26T08:55:24.051Z,4.85
2019-05-26T08:57:53.511Z,4.33
2019-05-26T09:00:23.450Z,3.72
2019-05-26T09:02:51.935Z,4.53
2019-05-26T09:05:20.082Z,3.50
2019-05-26T09:07:48.492Z,5.17
2019-05-26T09:10:17.143Z,4.35
2019-05-26T09:12:59.681Z,3.70
2019-05-26T09:15:16.226Z,3.83
2019-05-26T09:17:44.645Z,3.27
2019-05-26T09:20:13.617Z,3.10
2019-05-26T09:22:42.016Z,5.97
2019-05-26T09:25:10.858Z,2.80
2019-05-26T09:27:39.276Z,3.00
2019-05-26T09:30:08.519Z,3.15
2019-05-26T09:32:37.204Z,3.67
2019-05-26T09:35:09.199Z,2.30
2019-05-26T09:37:37.598Z,2.30
2019-05-26T09:40:07.864Z,5.30
2019-05-26T09:42:36.277Z,3.77
2019-05-26T09:45:06.986Z,2.47
2019-05-26T09:47:35.058Z,3.03
2019-05-26T09:50:05.391Z,2.53
2019-05-26T09:52:33.782Z,5.80
2019-05-26T09:55:02.262Z,5.27
2019-05-26T09:57:30.671Z,2.80
2019-05-26T09:59:59.074Z,2.97
2019-05-26T10:02:27.480Z,3.23
2019-05-26T10:04:55.952Z,3.90
2019-05-26T10:07:24.358Z,5.97
2019-05-26T10:09:52.761Z,4.70
2019-05-26T10:12:21.175Z,2.33
2019-05-26T10:14:49.575Z,2.63
2019-05-26T10:17:17.980Z,4.83
2019-05-26T10:19:46.395Z,4.07
2019-05-26T10:22:14.809Z,3.03
2019-05-26T10:24:43.207Z,2.20
2019-05-26T10:27:11.636Z,5.03
2019-05-26T10:29:40.307Z,2.30
2019-05-26T10:32:08.711Z,2.13
2019-05-26T10:34:37.223Z,2.07
2019-05-26T10:37:05.696Z,2.10
2019-05-26T10:39:34.094Z,5.40
2019-05-26T10:42:02.587Z,3.40
2019-05-26T10:44:31.115Z,3.10
2019-05-26T10:46:59.516Z,2.40
2019-05-26T10:49:27.940Z,4.87
2019-05-26T10:51:56.339Z,3.30
2019-05-26T10:54:24.924Z,3.97
2019-05-26T10:56:53.346Z,2.50
2019-05-26T10:59:21.827Z,2.53
2019-05-26T11:01:50.231Z,3.77
2019-05-26T11:04:18.648Z,4.53
2019-05-26T11:06:47.145Z,3.57
2019-05-26T11:09:15.539Z,1.90
2019-05-26T11:11:43.962Z,2.60
2019-05-26T11:14:12.368Z,3.27
2019-05-26T11:16:40.965Z,2.80
2019-05-26T11:19:09.370Z,2.80
2019-05-26T11:21:37.779Z,3.17
2019-05-26T11:24:06.179Z,3.20
2019-05-26T11:26:34.587Z,4.77
2019-05-26T11:29:03.070Z,3.50
2019-05-26T11:31:31.499Z,5.63
2019-05-26T11:33:59.905Z,3.90
2019-05-26T11:36:28.355Z,3.37
2019-05-26T11:38:56.845Z,5.00
2019-05-26T11:41:25.643Z,4.20
2019-05-26T11:43:54.043Z,3.60
2019-05-26T11:46:22.531Z,4.73
2019-05-26T11:48:50.952Z,7.10
2019-05-26T11:51:19.391Z,3.70
2019-05-26T11:53:47.797Z,7.87
2019-05-26T11:56:16.207Z,3.40
2019-05-26T11:58:44.643Z,3.20
2019-05-26T12:01:13.071Z,3.30
2019-05-26T12:03:41.473Z,4.23
2019-05-26T12:06:09.876Z,3.17
2019-05-26T12:08:38.311Z,4.10
2019-05-26T12:11:06.723Z,4.77
2019-05-26T12:13:36.760Z,4.43
2019-05-26T12:16:05.335Z,4.77
2019-05-26T12:18:33.743Z,4.63
2019-05-26T12:21:02.485Z,3.67
2019-05-26T12:23:30.875Z,4.60
2019-05-26T12:25:59.279Z,7.37
2019-05-26T12:28:27.701Z,11.10
2019-05-26T12:30:56.108Z,2.93
2019-05-26T12:33:24.506Z,6.77
2019-05-26T12:35:52.927Z,3.07
2019-05-26T12:38:21.323Z,5.10
2019-05-26T12:40:49.731Z,5.53
2019-05-26T12:43:18.264Z,2.97
2019-05-26T12:45:46.674Z,8.00
2019-05-26T12:48:15.095Z,2.67
2019-05-26T12:50:43.511Z,3.83
2019-05-26T12:53:12.153Z,5.73
2019-05-26T12:55:40.623Z,3.07
2019-05-26T12:58:08.710Z,2.83
2019-05-26T13:00:48.399Z,5.90
2019-05-26T13:03:07.634Z,4.23
2019-05-26T13:05:36.042Z,4.87
2019-05-26T13:08:04.712Z,8.13
2019-05-26T13:10:33.173Z,2.60
2019-05-26T13:13:01.587Z,6.77
2019-05-26T13:15:30.011Z,4.70
2019-05-26T13:17:58.423Z,3.30
2019-05-26T13:20:27.375Z,2.77
2019-05-26T13:22:55.783Z,2.30
2019-05-26T13:25:24.355Z,2.60
2019-05-26T13:27:52.808Z,3.47
2019-05-26T13:30:23.756Z,2.20
2019-05-26T13:32:52.287Z,2.80
2019-05-26T13:35:21.047Z,5.40
2019-05-26T13:37:49.433Z,5.53
2019-05-26T13:40:18.375Z,3.47
2019-05-26T13:42:46.792Z,3.10
2019-05-26T13:45:22.256Z,2.17
2019-05-26T13:47:46.303Z,6.97
2019-05-26T13:50:16.310Z,3.47
2019-05-26T13:52:45.054Z,4.63
2019-05-26T13:55:14.293Z,3.23
2019-05-26T13:57:42.694Z,3.33
2019-05-26T14:00:14.305Z,3.03
2019-05-26T14:02:42.827Z,2.57
2019-05-26T14:05:12.299Z,2.70
2019-05-26T14:07:41.031Z,6.20
2019-05-26T14:10:09.934Z,4.72
2019-05-26T14:12:38.446Z,5.97
2019-05-26T14:15:09.233Z,3.87
2019-05-26T14:17:38.662Z,3.97
2019-05-26T14:20:08.210Z,4.80
2019-05-26T14:22:36.618Z,3.33
2019-05-26T14:25:06.863Z,7.23
2019-05-26T14:27:35.284Z,2.83
2019-05-26T14:30:06.020Z,6.13
2019-05-26T14:32:34.422Z,4.27
2019-05-26T14:35:03.008Z,7.53
2019-05-26T14:37:31.410Z,2.53
2019-05-26T14:39:59.867Z,4.17
2019-05-26T14:42:28.291Z,2.77
2019-05-26T14:44:56.730Z,2.63
2019-05-26T14:47:25.122Z,3.30
2019-05-26T14:49:53.540Z,3.23
2019-05-26T14:52:22.035Z,2.43
2019-05-26T14:54:50.438Z,2.73
2019-05-26T14:57:18.847Z,4.70
2019-05-26T14:59:47.268Z,3.93
2019-05-26T15:02:15.671Z,2.77
2019-05-26T15:04:44.118Z,2.30
2019-05-26T15:07:12.613Z,5.83
2019-05-26T15:09:41.011Z,4.53
2019-05-26T15:12:09.471Z,5.57
2019-05-26T15:14:37.900Z,4.60
2019-05-26T15:17:06.296Z,2.73
2019-05-26T15:19:34.736Z,2.70
2019-05-26T15:22:03.223Z,3.53
2019-05-26T15:24:31.628Z,4.10
2019-05-26T15:27:00.077Z,5.77
2019-05-26T15:29:28.483Z,4.40
2019-05-26T15:31:56.947Z,10.70
2019-05-26T15:34:25.348Z,8.37
2019-05-26T15:36:54.109Z,5.27
2019-05-26T15:39:22.511Z,4.30
2019-05-26T15:41:50.915Z,3.80
2019-05-26T15:44:19.007Z,3.57
2019-05-26T15:46:47.739Z,3.57
2019-05-26T15:49:16.143Z,4.70
2019-05-26T15:51:44.568Z,7.23
2019-05-26T15:54:12.979Z,3.17
2019-05-26T15:56:41.380Z,4.67
2019-05-26T15:59:09.805Z,3.93
2019-05-26T16:01:38.247Z,3.53
2019-05-26T16:04:06.855Z,5.03
2019-05-26T16:06:35.288Z,13.83
2019-05-26T16:09:04.859Z,3.73
2019-05-26T16:11:33.262Z,5.13
2019-05-26T16:14:01.715Z,3.30
2019-05-26T16:16:40.558Z,5.30
2019-05-26T16:19:00.297Z,3.30
2019-05-26T16:21:28.779Z,5.00
2019-05-26T16:23:57.187Z,6.00
2019-05-26T16:26:25.583Z,5.53
2019-05-26T16:28:54.028Z,4.50
2019-05-26T16:31:22.493Z,4.70
2019-05-26T16:33:50.898Z,9.33
2019-05-26T16:36:21.469Z,3.43
2019-05-26T16:38:49.479Z,4.07
2019-05-26T16:41:17.862Z,3.67
2019-05-26T16:43:46.308Z,5.63
2019-05-26T16:46:14.721Z,4.37
2019-05-26T16:48:43.114Z,4.43
2019-05-26T16:51:11.537Z,5.13
2019-05-26T16:53:39.947Z,5.40
2019-05-26T16:56:08.351Z,3.43
2019-05-26T16:58:36.866Z,4.33
2019-05-26T17:01:05.278Z,3.87
2019-05-26T17:03:33.683Z,4.57
2019-05-26T17:06:07.762Z,3.40
2019-05-26T17:08:32.295Z,4.30
2019-05-26T17:11:00.696Z,4.37
2019-05-26T17:13:32.855Z,6.00
2019-05-26T17:15:59.239Z,6.07
2019-05-26T17:18:27.643Z,3.70
2019-05-26T17:20:56.043Z,4.07
2019-05-26T17:23:24.483Z,6.73
2019-05-26T17:25:52.897Z,5.50
2019-05-26T17:28:21.356Z,4.10
2019-05-26T17:30:49.760Z,3.90
2019-05-26T17:33:18.178Z,7.43
2019-05-26T17:35:46.599Z,4.17
2019-05-26T17:38:15.019Z,5.37
2019-05-26T17:40:43.443Z,5.57
2019-05-26T17:43:11.850Z,4.10
2019-05-26T17:45:40.273Z,5.50
2019-05-26T17:48:08.698Z,3.93
2019-05-26T17:50:37.075Z,5.13
2019-05-26T17:53:05.497Z,4.73
2019-05-26T17:55:33.972Z,5.03
2019-05-26T17:58:02.373Z,3.60
2019-05-26T18:00:30.802Z,4.30
2019-05-26T18:02:59.284Z,4.47
2019-05-26T18:05:27.701Z,5.07
2019-05-26T18:07:56.101Z,4.07
2019-05-26T18:10:24.503Z,5.67
2019-05-26T18:12:52.920Z,3.57
2019-05-26T18:15:21.326Z,4.23
2019-05-26T18:17:49.732Z,3.83
2019-05-26T18:20:18.413Z,3.50
2019-05-26T18:22:46.862Z,3.50
2019-05-26T18:25:15.379Z,4.37
2019-05-26T18:27:43.888Z,3.87
2019-05-26T18:30:12.769Z,5.17
2019-05-26T18:32:41.173Z,4.60
2019-05-26T18:35:09.750Z,4.37
2019-05-26T18:37:38.229Z,4.53
2019-05-26T18:40:07.275Z,3.33
2019-05-26T18:42:35.712Z,3.70
2019-05-26T18:45:08.898Z,5.13
2019-05-26T18:47:37.331Z,3.30
2019-05-26T18:50:06.782Z,8.33
2019-05-26T18:52:35.259Z,30.10
2019-05-26T18:55:04.561Z,27.83
2019-05-26T18:57:33.077Z,24.90
2019-05-26T19:00:01.512Z,12.93
2019-05-26T19:02:29.964Z,8.57
2019-05-26T19:04:58.384Z,9.77
2019-05-26T19:07:26.800Z,3.63
2019-05-26T19:09:55.296Z,5.90
2019-05-26T19:12:23.708Z,6.83
2019-05-26T19:14:52.111Z,4.40
2019-05-26T19:17:20.520Z,3.80
2019-05-26T19:19:48.925Z,3.43
2019-05-26T19:22:17.320Z,4.50
2019-05-26T19:24:45.723Z,3.57
2019-05-26T19:27:14.496Z,3.40
2019-05-26T19:29:42.895Z,3.30
2019-05-26T19:32:11.299Z,4.10
2019-05-26T19:34:39.788Z,3.63
2019-05-26T19:37:08.228Z,5.80
2019-05-26T19:39:36.638Z,4.57
2019-05-26T19:42:05.395Z,4.20
2019-05-26T19:44:33.799Z,5.03
2019-05-26T19:47:02.203Z,5.90
2019-05-26T19:49:30.618Z,4.20
2019-05-26T19:51:59.032Z,3.40
2019-05-26T19:54:27.435Z,4.00
2019-05-26T19:56:55.863Z,4.47
2019-05-26T19:59:24.268Z,4.00
2019-05-26T20:01:52.743Z,4.80
2019-05-26T20:04:21.159Z,4.60
2019-05-26T20:06:49.647Z,5.37
2019-05-26T20:09:18.075Z,3.97
2019-05-26T20:11:46.462Z,4.97
2019-05-26T20:14:14.862Z,4.77
2019-05-26T20:16:43.280Z,4.30
2019-05-26T20:19:11.787Z,7.63
2019-05-26T20:21:40.194Z,4.40
2019-05-26T20:24:08.599Z,4.80
2019-05-26T20:26:37.007Z,4.00
2019-05-26T20:29:05.611Z,4.80
2019-05-26T20:31:34.014Z,4.50
2019-05-26T20:34:02.495Z,4.23
2019-05-26T20:36:30.894Z,4.10
2019-05-26T20:38:59.337Z,4.10
2019-05-26T20:41:27.754Z,5.33
2019-05-26T20:43:56.170Z,4.23
2019-05-26T20:46:24.580Z,4.50
2019-05-26T20:48:52.982Z,5.77
2019-05-26T20:51:21.395Z,5.03
2019-05-26T20:53:49.798Z,5.73
2019-05-26T20:56:18.247Z,4.67
2019-05-26T20:58:46.983Z,4.60
2019-05-26T21:01:15.384Z,5.30
2019-05-26T21:03:43.827Z,6.30
2019-05-26T21:06:12.239Z,4.47
2019-05-26T21:08:40.675Z,4.60
2019-05-26T21:11:09.090Z,4.23
2019-05-26T21:13:37.504Z,4.90
2019-05-26T21:16:05.911Z,4.17
2019-05-26T21:18:34.331Z,5.57
2019-05-26T21:21:03.212Z,4.20
2019-05-26T21:23:31.695Z,4.07
2019-05-26T21:26:00.111Z,3.83
2019-05-26T21:28:28.578Z,3.60
2019-05-26T21:30:56.977Z,4.10
2019-05-26T21:33:25.383Z,4.20
2019-05-26T21:35:53.823Z,5.10
2019-05-26T21:38:22.301Z,3.87
2019-05-26T21:40:50.708Z,3.37
2019-05-26T21:43:19.109Z,3.60
2019-05-26T21:45:47.517Z,5.17
2019-05-26T21:48:15.915Z,4.33
2019-05-26T21:50:44.327Z,5.70
2019-05-26T21:53:12.733Z,4.10
2019-05-26T21:55:41.155Z,4.70
2019-05-26T21:58:09.603Z,4.40
2019-05-26T22:00:42.521Z,4.10
2019-05-26T22:03:11.058Z,4.30
2019-05-26T22:05:39.481Z,4.73
2019-05-26T22:08:07.950Z,5.20
2019-05-26T22:10:36.630Z,5.33
2019-05-26T22:13:05.300Z,4.70
2019-05-26T22:15:33.978Z,4.37
2019-05-26T22:18:02.391Z,4.70
2019-05-26T22:20:30.865Z,5.00
2019-05-26T22:22:59.353Z,5.90
2019-05-26T22:25:27.755Z,5.00
2019-05-26T22:27:56.157Z,7.07
2019-05-26T22:30:24.563Z,8.70
2019-05-26T22:32:52.971Z,5.63
2019-05-26T22:35:21.380Z,5.23
2019-05-26T22:37:49.788Z,5.50
2019-05-26T22:40:18.367Z,4.97
2019-05-26T22:42:46.775Z,5.67
2019-05-26T22:45:15.630Z,5.40
2019-05-26T22:47:44.040Z,10.53
2019-05-26T22:50:13.592Z,8.07
2019-05-26T22:52:41.999Z,7.03
2019-05-26T22:55:11.455Z,6.30
2019-05-26T22:57:39.854Z,7.13
2019-05-26T23:00:10.116Z,5.80
2019-05-26T23:02:38.532Z,8.03
2019-05-26T23:05:08.174Z,7.57
2019-05-26T23:07:36.582Z,7.83
2019-05-26T23:10:08.564Z,7.97
2019-05-26T23:12:37.015Z,6.93
2019-05-26T23:15:08.182Z,5.53
2019-05-26T23:17:36.616Z,6.03
2019-05-26T23:20:06.255Z,8.13
2019-05-26T23:22:34.687Z,6.30
2019-05-26T23:25:03.091Z,5.27
2019-05-26T23:27:31.499Z,4.77
2019-05-26T23:29:59.904Z,5.77
2019-05-26T23:32:28.308Z,6.53
2019-05-26T23:34:56.808Z,6.27
2019-05-26T23:37:25.206Z,7.77
2019-05-26T23:39:54.106Z,4.93
2019-05-26T23:42:22.515Z,4.97
2019-05-26T23:44:50.915Z,6.27
2019-05-26T23:47:19.328Z,6.07
2019-05-26T23:49:47.732Z,5.53
2019-05-26T23:52:19.194Z,6.30
2019-05-26T23:54:46.268Z,5.67
2019-05-26T23:57:14.671Z,5.70
2019-05-26T23:59:43.083Z,4.63
